sensor_id;sensor_type;location;lat;lon;timestamp;pressure;altitude;pressure_sealevel;temperature;humidity
22047;BME280;11187;49.412;20.956;2023-03-22T00:02:34;94972.81;;;5.99;100.00
22047;BME280;11187;49.412;20.956;2023-03-22T00:05:08;94962.66;;;5.99;100.00
22047;BME280;11187;49.412;20.956;2023-03-22T00:07:55;94959.28;;;5.99;100.00
22047;BME280;11187;49.412;20.956;2023-03-22T00:10:30;94952.50;;;5.98;100.00
22047;BME280;11187;49.412;20.956;2023-03-22T00:13:16;94954.22;;;5.94;100.00
22047;BME280;11187;49.412;20.956;2023-03-22T00:15:50;94962.69;;;5.89;100.00
22047;BME280;11187;49.412;20.956;2023-03-22T00:18:45;94951.69;;;5.80;100.00
22047;BME280;11187;49.412;20.956;2023-03-22T00:21:19;94944.09;;;5.73;100.00
22047;BME280;11187;49.412;20.956;2023-03-22T00:24:05;94945.78;;;5.64;100.00
22047;BME280;11187;49.412;20.956;2023-03-22T00:26:39;94944.09;;;5.56;100.00
22047;BME280;11187;49.412;20.956;2023-03-22T00:29:26;94942.44;;;5.49;100.00
22047;BME280;11187;49.412;20.956;2023-03-22T00:31:59;94946.66;;;5.42;100.00
22047;BME280;11187;49.412;20.956;2023-03-22T00:34:46;94944.16;;;5.30;100.00
22047;BME280;11187;49.412;20.956;2023-03-22T00:37:19;94954.28;;;5.22;100.00
22047;BME280;11187;49.412;20.956;2023-03-22T00:40:14;94949.22;;;5.14;100.00
22047;BME280;11187;49.412;20.956;2023-03-22T00:42:48;94950.91;;;5.11;100.00
22047;BME280;11187;49.412;20.956;2023-03-22T00:45:41;94938.22;;;5.08;100.00
22047;BME280;11187;49.412;20.956;2023-03-22T00:48:15;94945.84;;;5.06;100.00
22047;BME280;11187;49.412;20.956;2023-03-22T00:51:10;94936.56;;;5.02;100.00
22047;BME280;11187;49.412;20.956;2023-03-22T00:54:04;94942.47;;;4.98;100.00
22047;BME280;11187;49.412;20.956;2023-03-22T00:56:38;94932.31;;;4.95;100.00
22047;BME280;11187;49.412;20.956;2023-03-22T00:59:31;94935.72;;;4.95;100.00
22047;BME280;11187;49.412;20.956;2023-03-22T01:02:25;94934.84;;;4.95;100.00
22047;BME280;11187;49.412;20.956;2023-03-22T01:05:19;94936.53;;;4.94;100.00
22047;BME280;11187;49.412;20.956;2023-03-22T01:07:54;94927.25;;;4.96;100.00
22047;BME280;11187;49.412;20.956;2023-03-22T01:10:51;94923.88;;;4.97;100.00
22047;BME280;11187;49.412;20.956;2023-03-22T01:13:45;94912.88;;;4.95;100.00
22047;BME280;11187;49.412;20.956;2023-03-22T01:16:20;94914.56;;;4.98;100.00
22047;BME280;11187;49.412;20.956;2023-03-22T01:19:06;94904.41;;;5.02;100.00
22047;BME280;11187;49.412;20.956;2023-03-22T01:21:40;94914.56;;;5.07;100.00
22047;BME280;11187;49.412;20.956;2023-03-22T01:24:33;94908.66;;;5.11;100.00
22047;BME280;11187;49.412;20.956;2023-03-22T01:27:07;94913.72;;;5.11;100.00
22047;BME280;11187;49.412;20.956;2023-03-22T01:29:53;94912.84;;;5.11;100.00
22047;BME280;11187;49.412;20.956;2023-03-22T01:32:27;94918.78;;;5.10;100.00
22047;BME280;11187;49.412;20.956;2023-03-22T01:35:20;94912.00;;;5.10;100.00
22047;BME280;11187;49.412;20.956;2023-03-22T01:38:14;94909.47;;;5.12;100.00
22047;BME280;11187;49.412;20.956;2023-03-22T01:40:48;94911.16;;;5.17;100.00
22047;BME280;11187;49.412;20.956;2023-03-22T01:43:41;94909.50;;;5.18;100.00
22047;BME280;11187;49.412;20.956;2023-03-22T01:46:35;94905.22;;;5.20;100.00
22047;BME280;11187;49.412;20.956;2023-03-22T01:49:32;94900.19;;;5.18;100.00
22047;BME280;11187;49.412;20.956;2023-03-22T01:52:10;94908.59;;;5.22;100.00
22047;BME280;11187;49.412;20.956;2023-03-22T01:54:58;94900.19;;;5.25;100.00
22047;BME280;11187;49.412;20.956;2023-03-22T01:57:35;94899.31;;;5.27;100.00
22047;BME280;11187;49.412;20.956;2023-03-22T02:00:29;94890.84;;;5.30;100.00
22047;BME280;11187;49.412;20.956;2023-03-22T02:03:36;94895.06;;;5.31;100.00
22047;BME280;11187;49.412;20.956;2023-03-22T02:06:10;94894.25;;;5.32;100.00
22047;BME280;11187;49.412;20.956;2023-03-22T02:08:57;94890.00;;;5.31;100.00
22047;BME280;11187;49.412;20.956;2023-03-22T02:11:36;94889.16;;;5.32;100.00
22047;BME280;11187;49.412;20.956;2023-03-22T02:30:32;94892.56;;;5.23;100.00
22047;BME280;11187;49.412;20.956;2023-03-22T02:34:09;94890.00;;;5.23;100.00
22047;BME280;11187;49.412;20.956;2023-03-22T02:43:28;94892.56;;;5.18;100.00
22047;BME280;11187;49.412;20.956;2023-03-22T02:46:10;94893.41;;;5.19;100.00
22047;BME280;11187;49.412;20.956;2023-03-22T02:49:15;94895.06;;;5.20;100.00
22047;BME280;11187;49.412;20.956;2023-03-22T02:52:16;94895.09;;;5.18;100.00
22047;BME280;11187;49.412;20.956;2023-03-22T02:55:30;94893.38;;;5.17;100.00
22047;BME280;11187;49.412;20.956;2023-03-22T02:58:48;94885.78;;;5.14;100.00
22047;BME280;11187;49.412;20.956;2023-03-22T03:01:29;94895.09;;;5.15;100.00
22047;BME280;11187;49.412;20.956;2023-03-22T03:04:22;94894.25;;;5.12;100.00
22047;BME280;11187;49.412;20.956;2023-03-22T03:07:02;94907.78;;;5.14;100.00
22047;BME280;11187;49.412;20.956;2023-03-22T03:09:56;94902.72;;;5.14;100.00
22047;BME280;11187;49.412;20.956;2023-03-22T03:12:31;94904.41;;;5.12;100.00
22047;BME280;11187;49.412;20.956;2023-03-22T03:15:24;94901.88;;;5.09;100.00
22047;BME280;11187;49.412;20.956;2023-03-22T03:27:06;94904.41;;;5.06;100.00
22047;BME280;11187;49.412;20.956;2023-03-22T03:30:09;94906.13;;;5.02;100.00
22047;BME280;11187;49.412;20.956;2023-03-22T03:32:54;94914.56;;;4.98;100.00
22047;BME280;11187;49.412;20.956;2023-03-22T03:35:45;94916.25;;;4.97;100.00
22047;BME280;11187;49.412;20.956;2023-03-22T03:38:29;94906.09;;;4.94;100.00
22047;BME280;11187;49.412;20.956;2023-03-22T03:41:08;94900.19;;;4.92;100.00
22047;BME280;11187;49.412;20.956;2023-03-22T03:43:57;94897.63;;;4.92;100.00
22047;BME280;11187;49.412;20.956;2023-03-22T03:46:31;94899.34;;;4.89;100.00
22047;BME280;11187;49.412;20.956;2023-03-22T03:49:24;94908.66;;;4.93;100.00
22047;BME280;11187;49.412;20.956;2023-03-22T03:52:18;94895.97;;;4.87;100.00
22047;BME280;11187;49.412;20.956;2023-03-22T03:54:56;94902.72;;;4.86;100.00
22047;BME280;11187;49.412;20.956;2023-03-22T03:57:42;94905.25;;;4.89;100.00
22047;BME280;11187;49.412;20.956;2023-03-22T04:00:16;94895.94;;;4.90;100.00
22047;BME280;11187;49.412;20.956;2023-03-22T04:03:11;94898.47;;;4.90;100.00
22047;BME280;11187;49.412;20.956;2023-03-22T04:06:05;94896.81;;;4.93;100.00
22047;BME280;11187;49.412;20.956;2023-03-22T04:08:59;94901.03;;;4.93;100.00
22047;BME280;11187;49.412;20.956;2023-03-22T04:11:54;94905.28;;;4.91;100.00
22047;BME280;11187;49.412;20.956;2023-03-22T04:14:36;94901.03;;;4.93;100.00
22047;BME280;11187;49.412;20.956;2023-03-22T04:17:30;94895.94;;;4.94;100.00
22047;BME280;11187;49.412;20.956;2023-03-22T04:20:25;94902.72;;;4.94;100.00
22047;BME280;11187;49.412;20.956;2023-03-22T04:22:59;94895.97;;;4.91;100.00
22047;BME280;11187;49.412;20.956;2023-03-22T04:25:45;94897.66;;;4.91;100.00
22047;BME280;11187;49.412;20.956;2023-03-22T04:28:22;94894.28;;;4.89;100.00
22047;BME280;11187;49.412;20.956;2023-03-22T04:31:08;94890.03;;;4.91;100.00
22047;BME280;11187;49.412;20.956;2023-03-22T04:33:43;94895.13;;;4.91;100.00
22047;BME280;11187;49.412;20.956;2023-03-22T04:36:35;94895.94;;;4.90;100.00
22047;BME280;11187;49.412;20.956;2023-03-22T04:39:11;94893.44;;;4.87;100.00
22047;BME280;11187;49.412;20.956;2023-03-22T04:41:57;94895.13;;;4.85;100.00
22047;BME280;11187;49.412;20.956;2023-03-22T04:44:31;94893.41;;;4.84;100.00
22047;BME280;11187;49.412;20.956;2023-03-22T04:47:17;94890.03;;;4.78;100.00
22047;BME280;11187;49.412;20.956;2023-03-22T04:49:51;94895.09;;;4.78;100.00
22047;BME280;11187;49.412;20.956;2023-03-22T04:52:44;94891.72;;;4.76;100.00
22047;BME280;11187;49.412;20.956;2023-03-22T04:55:38;94893.41;;;4.74;100.00
22047;BME280;11187;49.412;20.956;2023-03-22T04:58:34;94898.50;;;4.73;100.00
22047;BME280;11187;49.412;20.956;2023-03-22T05:01:09;94907.78;;;4.69;100.00
22047;BME280;11187;49.412;20.956;2023-03-22T05:03:56;94901.00;;;4.65;100.00
22047;BME280;11187;49.412;20.956;2023-03-22T05:06:33;94897.63;;;4.60;100.00
22047;BME280;11187;49.412;20.956;2023-03-22T05:09:19;94904.38;;;4.56;100.00
22047;BME280;11187;49.412;20.956;2023-03-22T05:11:53;94905.22;;;4.54;100.00
22047;BME280;11187;49.412;20.956;2023-03-22T05:14:39;94900.16;;;4.57;100.00
22047;BME280;11187;49.412;20.956;2023-03-22T05:17:13;94906.94;;;4.61;100.00
22047;BME280;11187;49.412;20.956;2023-03-22T05:19:59;94902.69;;;4.63;100.00
22047;BME280;11187;49.412;20.956;2023-03-22T05:22:40;94906.94;;;4.67;100.00
22047;BME280;11187;49.412;20.956;2023-03-22T05:25:29;94906.94;;;4.66;100.00
22047;BME280;11187;49.412;20.956;2023-03-22T05:28:03;94909.47;;;4.64;100.00
22047;BME280;11187;49.412;20.956;2023-03-22T05:30:49;94909.47;;;4.66;100.00
22047;BME280;11187;49.412;20.956;2023-03-22T05:33:24;94910.31;;;4.65;100.00
22047;BME280;11187;49.412;20.956;2023-03-22T05:36:11;94919.59;;;4.67;100.00
22047;BME280;11187;49.412;20.956;2023-03-22T05:38:44;94926.38;;;4.70;100.00
22047;BME280;11187;49.412;20.956;2023-03-22T05:41:31;94927.22;;;4.73;100.00
22047;BME280;11187;49.412;20.956;2023-03-22T05:44:09;94928.09;;;4.77;100.00
22047;BME280;11187;49.412;20.956;2023-03-22T05:46:48;94923.84;;;4.79;100.00
22047;BME280;11187;49.412;20.956;2023-03-22T05:49:28;94928.94;;;4.82;100.00
22047;BME280;11187;49.412;20.956;2023-03-22T05:52:08;94923.00;;;4.83;100.00
22047;BME280;11187;49.412;20.956;2023-03-22T05:54:48;94933.16;;;4.86;100.00
22047;BME280;11187;49.412;20.956;2023-03-22T05:57:28;94936.53;;;4.88;100.00
22047;BME280;11187;49.412;20.956;2023-03-22T06:00:10;94938.22;;;4.88;100.00
22047;BME280;11187;49.412;20.956;2023-03-22T06:02:50;94929.78;;;4.92;100.00
22047;BME280;11187;49.412;20.956;2023-03-22T06:05:34;94924.69;;;4.96;100.00
22047;BME280;11187;49.412;20.956;2023-03-22T06:08:15;94943.31;;;4.91;100.00
22047;BME280;11187;49.412;20.956;2023-03-22T06:10:58;94937.38;;;4.86;100.00
22047;BME280;11187;49.412;20.956;2023-03-22T06:13:38;94941.63;;;4.87;100.00
22047;BME280;11187;49.412;20.956;2023-03-22T06:16:18;94939.09;;;4.93;100.00
22047;BME280;11187;49.412;20.956;2023-03-22T06:19:12;94945.00;;;5.01;100.00
22047;BME280;11187;49.412;20.956;2023-03-22T06:22:06;94940.75;;;5.06;100.00
22047;BME280;11187;49.412;20.956;2023-03-22T06:25:00;94947.53;;;5.12;100.00
22047;BME280;11187;49.412;20.956;2023-03-22T06:27:54;94950.06;;;5.21;100.00
22047;BME280;11187;49.412;20.956;2023-03-22T06:30:28;94945.00;;;5.26;100.00
22047;BME280;11187;49.412;20.956;2023-03-22T06:33:14;94945.84;;;5.26;100.00
22047;BME280;11187;49.412;20.956;2023-03-22T06:35:48;94946.69;;;5.33;100.00
22047;BME280;11187;49.412;20.956;2023-03-22T06:38:41;94948.38;;;5.34;100.00
22047;BME280;11187;49.412;20.956;2023-03-22T06:41:35;94946.69;;;5.39;100.00
22047;BME280;11187;49.412;20.956;2023-03-22T06:44:09;94957.69;;;5.46;100.00
22047;BME280;11187;49.412;20.956;2023-03-22T06:47:03;94947.50;;;5.50;100.00
22047;BME280;11187;49.412;20.956;2023-03-22T06:49:37;94960.19;;;5.53;100.00
22047;BME280;11187;49.412;20.956;2023-03-22T06:52:24;94955.13;;;5.50;100.00
22047;BME280;11187;49.412;20.956;2023-03-22T06:54:58;94959.38;;;5.50;100.00
22047;BME280;11187;49.412;20.956;2023-03-22T06:57:51;94956.81;;;5.51;100.00
22047;BME280;11187;49.412;20.956;2023-03-22T07:00:45;94955.13;;;5.49;100.00
22047;BME280;11187;49.412;20.956;2023-03-22T07:03:19;94955.13;;;5.49;100.00
22047;BME280;11187;49.412;20.956;2023-03-22T07:06:07;94959.34;;;5.56;100.00
22047;BME280;11187;49.412;20.956;2023-03-22T07:08:41;94961.03;;;5.63;100.00
22047;BME280;11187;49.412;20.956;2023-03-22T07:11:30;94959.31;;;5.74;100.00
22047;BME280;11187;49.412;20.956;2023-03-22T07:14:04;94960.16;;;5.82;100.00
22047;BME280;11187;49.412;20.956;2023-03-22T07:16:50;94953.38;;;5.80;100.00
22047;BME280;11187;49.412;20.956;2023-03-22T07:19:44;94960.97;;;5.91;100.00
22047;BME280;11187;49.412;20.956;2023-03-22T07:22:18;94953.34;;;6.03;100.00
22047;BME280;11187;49.412;20.956;2023-03-22T07:25:11;94959.25;;;6.10;100.00
22047;BME280;11187;49.412;20.956;2023-03-22T07:28:05;94955.81;;;6.18;100.00
22047;BME280;11187;49.412;20.956;2023-03-22T07:31:05;94958.31;;;6.27;100.00
22047;BME280;11187;49.412;20.956;2023-03-22T07:33:39;94960.84;;;6.31;100.00
22047;BME280;11187;49.412;20.956;2023-03-22T07:36:26;94967.63;;;6.36;100.00
22047;BME280;11187;49.412;20.956;2023-03-22T07:39:00;94965.84;;;6.49;100.00
22047;BME280;11187;49.412;20.956;2023-03-22T07:41:47;94959.03;;;6.59;100.00
22047;BME280;11187;49.412;20.956;2023-03-22T07:44:21;94959.81;;;6.67;100.00
22047;BME280;11187;49.412;20.956;2023-03-22T07:47:16;94954.63;;;6.82;100.00
22047;BME280;11187;49.412;20.956;2023-03-22T07:50:06;94958.81;;;6.89;100.00
22047;BME280;11187;49.412;20.956;2023-03-22T07:52:53;94957.13;;;6.92;100.00
22047;BME280;11187;49.412;20.956;2023-03-22T07:55:27;94944.38;;;6.95;100.00
22047;BME280;11187;49.412;20.956;2023-03-22T07:58:13;94948.53;;;7.05;100.00
22047;BME280;11187;49.412;20.956;2023-03-22T08:00:47;94943.34;;;7.19;100.00
22047;BME280;11187;49.412;20.956;2023-03-22T08:03:35;94951.69;;;7.35;100.00
22047;BME280;11187;49.412;20.956;2023-03-22T08:06:08;94949.03;;;7.47;100.00
22047;BME280;11187;49.412;20.956;2023-03-22T08:08:54;94948.91;;;7.61;100.00
22047;BME280;11187;49.412;20.956;2023-03-22T08:11:28;94948.75;;;7.76;100.00
22047;BME280;11187;49.412;20.956;2023-03-22T08:14:14;94946.88;;;7.92;100.00
22047;BME280;11187;49.412;20.956;2023-03-22T08:17:01;94946.72;;;8.07;100.00
22047;BME280;11187;49.412;20.956;2023-03-22T08:19:55;94946.38;;;8.36;100.00
22047;BME280;11187;49.412;20.956;2023-03-22T08:22:54;94950.34;;;8.61;100.00
22047;BME280;11187;49.412;20.956;2023-03-22T08:26:09;94949.19;;;8.83;100.00
22047;BME280;11187;49.412;20.956;2023-03-22T08:29:00;94954.84;;;9.04;100.00
22047;BME280;11187;49.412;20.956;2023-03-22T08:32:06;94953.72;;;9.22;100.00
22047;BME280;11187;49.412;20.956;2023-03-22T08:34:57;94947.50;;;9.38;100.00
22047;BME280;11187;49.412;20.956;2023-03-22T08:38:02;94948.09;;;9.54;100.00
22047;BME280;11187;49.412;20.956;2023-03-22T08:40:54;94943.66;;;9.65;100.00
22047;BME280;11187;49.412;20.956;2023-03-22T08:44:05;94949.28;;;9.82;100.00
22047;BME280;11187;49.412;20.956;2023-03-22T08:46:39;94940.59;;;9.91;98.60
22047;BME280;11187;49.412;20.956;2023-03-22T08:49:25;94941.63;;;9.81;98.85
22047;BME280;11187;49.412;20.956;2023-03-22T08:51:59;94943.97;;;9.93;99.66
22047;BME280;11187;49.412;20.956;2023-03-22T08:54:47;94950.47;;;10.11;98.68
22047;BME280;11187;49.412;20.956;2023-03-22T08:57:25;94944.25;;;10.23;98.91
22047;BME280;11187;49.412;20.956;2023-03-22T09:00:19;94936.25;;;10.40;98.44
22047;BME280;11187;49.412;20.956;2023-03-22T09:03:11;94936.16;;;10.44;95.88
22047;BME280;11187;49.412;20.956;2023-03-22T09:06:06;94938.25;;;10.68;96.96
22047;BME280;11187;49.412;20.956;2023-03-22T09:08:39;94924.97;;;10.89;96.93
22047;BME280;11187;49.412;20.956;2023-03-22T09:11:26;94928.34;;;10.91;94.96
22047;BME280;11187;49.412;20.956;2023-03-22T09:14:00;94922.72;;;11.13;95.04
22047;BME280;11187;49.412;20.956;2023-03-22T09:16:46;94927.22;;;11.39;94.24
22047;BME280;11187;49.412;20.956;2023-03-22T09:19:40;94927.31;;;11.70;90.92
22047;BME280;11187;49.412;20.956;2023-03-22T09:22:51;94925.66;;;11.67;91.53
22047;BME280;11187;49.412;20.956;2023-03-22T09:25:24;94924.13;;;11.95;91.29
22047;BME280;11187;49.412;20.956;2023-03-22T09:28:17;94919.88;;;12.25;89.62
22047;BME280;11187;49.412;20.956;2023-03-22T09:31:11;94908.00;;;12.50;90.20
22047;BME280;11187;49.412;20.956;2023-03-22T09:33:46;94917.69;;;12.70;89.42
22047;BME280;11187;49.412;20.956;2023-03-22T09:36:39;94909.47;;;12.87;88.21
22047;BME280;11187;49.412;20.956;2023-03-22T09:39:35;94895.41;;;12.71;85.50
22047;BME280;11187;49.412;20.956;2023-03-22T09:42:24;94898.19;;;12.93;85.29
22047;BME280;11187;49.412;20.956;2023-03-22T09:45:24;94899.25;;;13.12;84.22
22047;BME280;11187;49.412;20.956;2023-03-22T09:48:09;94894.44;;;13.31;84.58
22047;BME280;11187;49.412;20.956;2023-03-22T09:51:06;94901.66;;;13.47;83.51
22047;BME280;11187;49.412;20.956;2023-03-22T09:54:15;94885.66;;;13.62;82.49
22047;BME280;11187;49.412;20.956;2023-03-22T10:03:12;94875.66;;;13.54;80.22
22047;BME280;11187;49.412;20.956;2023-03-22T10:06:06;94869.75;;;13.51;79.71
22047;BME280;11187;49.412;20.956;2023-03-22T10:15:03;94862.66;;;13.83;78.23
22047;BME280;11187;49.412;20.956;2023-03-22T10:17:41;94858.38;;;13.83;78.81
22047;BME280;11187;49.412;20.956;2023-03-22T10:23:23;94857.16;;;13.93;78.60
22047;BME280;11187;49.412;20.956;2023-03-22T10:26:29;94857.66;;;14.03;77.68
22047;BME280;11187;49.412;20.956;2023-03-22T10:29:36;94857.28;;;14.14;78.29
22047;BME280;11187;49.412;20.956;2023-03-22T10:35:22;94844.81;;;14.27;78.38
22047;BME280;11187;49.412;20.956;2023-03-22T10:38:18;94843.06;;;14.27;76.97
22047;BME280;11187;49.412;20.956;2023-03-22T10:40:55;94844.84;;;14.25;76.91
22047;BME280;11187;49.412;20.956;2023-03-22T10:43:44;94849.22;;;14.23;77.68
22047;BME280;11187;49.412;20.956;2023-03-22T10:46:23;94843.22;;;14.23;74.83
22047;BME280;11187;49.412;20.956;2023-03-22T10:49:27;94841.28;;;14.06;74.77
22047;BME280;11187;49.412;20.956;2023-03-22T10:52:08;94849.84;;;14.06;74.25
22047;BME280;11187;49.412;20.956;2023-03-22T10:55:13;94857.31;;;14.12;76.49
22047;BME280;11187;49.412;20.956;2023-03-22T10:58:29;94845.84;;;14.21;74.14
22047;BME280;11187;49.412;20.956;2023-03-22T11:01:06;94843.06;;;14.27;74.08
22047;BME280;11187;49.412;20.956;2023-03-22T11:03:57;94837.00;;;14.28;71.50
22047;BME280;11187;49.412;20.956;2023-03-22T11:06:31;94839.91;;;14.19;72.71
22047;BME280;11187;49.412;20.956;2023-03-22T11:09:25;94835.69;;;14.18;73.34
22047;BME280;11187;49.412;20.956;2023-03-22T11:11:59;94837.28;;;14.20;74.11
22047;BME280;11187;49.412;20.956;2023-03-22T11:14:54;94838.22;;;14.19;74.23
22047;BME280;11187;49.412;20.956;2023-03-22T11:17:49;94836.91;;;14.08;73.80
22047;BME280;11187;49.412;20.956;2023-03-22T11:21:08;94837.53;;;13.91;72.27
22047;BME280;11187;49.412;20.956;2023-03-22T11:24:04;94832.06;;;13.75;73.06
22047;BME280;11187;49.412;20.956;2023-03-22T11:27:03;94832.56;;;13.61;74.60
22047;BME280;11187;49.412;20.956;2023-03-22T11:29:46;94833.72;;;13.52;74.03
22047;BME280;11187;49.412;20.956;2023-03-22T11:32:37;94836.50;;;13.46;74.11
22047;BME280;11187;49.412;20.956;2023-03-22T11:35:17;94832.28;;;13.44;74.16
22047;BME280;11187;49.412;20.956;2023-03-22T11:38:05;94833.03;;;13.47;74.61
22047;BME280;11187;49.412;20.956;2023-03-22T11:40:48;94832.69;;;13.58;74.15
22047;BME280;11187;49.412;20.956;2023-03-22T11:43:52;94833.34;;;13.63;74.22
22047;BME280;11187;49.412;20.956;2023-03-22T11:46:57;94829.81;;;13.66;74.35
22047;BME280;11187;49.412;20.956;2023-03-22T11:49:38;94825.00;;;13.56;74.42
22047;BME280;11187;49.412;20.956;2023-03-22T11:52:30;94822.47;;;13.55;74.04
22047;BME280;11187;49.412;20.956;2023-03-22T11:55:04;94820.75;;;13.55;74.29
22047;BME280;11187;49.412;20.956;2023-03-22T11:57:57;94815.28;;;13.65;75.24
22047;BME280;11187;49.412;20.956;2023-03-22T12:00:34;94819.00;;;13.81;74.69
22047;BME280;11187;49.412;20.956;2023-03-22T12:03:26;94821.00;;;13.96;74.51
22047;BME280;11187;49.412;20.956;2023-03-22T12:06:15;94814.75;;;14.04;72.82
22047;BME280;11187;49.412;20.956;2023-03-22T12:09:23;94817.22;;;14.07;73.92
22047;BME280;11187;49.412;20.956;2023-03-22T12:12:25;94818.84;;;14.09;72.42
22047;BME280;11187;49.412;20.956;2023-03-22T12:15:25;94823.41;;;14.01;73.52
22047;BME280;11187;49.412;20.956;2023-03-22T12:18:33;94823.03;;;13.88;72.97
22047;BME280;11187;49.412;20.956;2023-03-22T12:21:30;94812.28;;;13.77;73.32
22047;BME280;11187;49.412;20.956;2023-03-22T12:24:28;94814.19;;;13.72;74.06
22047;BME280;11187;49.412;20.956;2023-03-22T12:27:35;94809.41;;;13.61;73.41
22047;BME280;11187;49.412;20.956;2023-03-22T12:30:33;94805.31;;;13.55;73.82
22047;BME280;11187;49.412;20.956;2023-03-22T12:33:17;94803.47;;;13.59;74.09
22047;BME280;11187;49.412;20.956;2023-03-22T12:36:19;94796.44;;;13.64;73.96
22047;BME280;11187;49.412;20.956;2023-03-22T12:38:56;94804.09;;;13.66;73.92
22047;BME280;11187;49.412;20.956;2023-03-22T12:41:46;94799.84;;;13.65;72.92
22047;BME280;11187;49.412;20.956;2023-03-22T12:44:37;94792.03;;;13.68;73.05
22047;BME280;11187;49.412;20.956;2023-03-22T12:47:50;94793.38;;;13.78;73.88
22047;BME280;11187;49.412;20.956;2023-03-22T12:50:55;94787.00;;;13.88;73.33
22047;BME280;11187;49.412;20.956;2023-03-22T12:53:34;94779.00;;;13.96;73.03
22047;BME280;11187;49.412;20.956;2023-03-22T12:56:37;94777.94;;;14.02;72.31
22047;BME280;11187;49.412;20.956;2023-03-22T12:59:24;94784.66;;;14.06;72.78
22047;BME280;11187;49.412;20.956;2023-03-22T13:02:29;94781.03;;;14.10;71.63
22047;BME280;11187;49.412;20.956;2023-03-22T13:05:27;94780.00;;;14.15;71.95
22047;BME280;11187;49.412;20.956;2023-03-22T13:08:22;94775.56;;;14.19;72.35
22047;BME280;11187;49.412;20.956;2023-03-22T13:11:22;94780.47;;;14.25;72.03
22047;BME280;11187;49.412;20.956;2023-03-22T13:13:56;94779.34;;;14.32;72.66
22047;BME280;11187;49.412;20.956;2023-03-22T13:16:52;94775.56;;;14.41;72.50
22047;BME280;11187;49.412;20.956;2023-03-22T13:19:33;94772.69;;;14.49;73.43
22047;BME280;11187;49.412;20.956;2023-03-22T13:22:29;94763.16;;;14.51;72.55
22047;BME280;11187;49.412;20.956;2023-03-22T13:25:58;94771.03;;;14.48;72.00
22047;BME280;11187;49.412;20.956;2023-03-22T13:28:57;94766.78;;;14.47;71.72
22047;BME280;11187;49.412;20.956;2023-03-22T13:31:37;94759.94;;;14.46;71.54
22047;BME280;11187;49.412;20.956;2023-03-22T13:34:48;94749.88;;;14.39;71.29
22047;BME280;11187;49.412;20.956;2023-03-22T13:37:41;94751.53;;;14.42;71.35
22047;BME280;11187;49.412;20.956;2023-03-22T13:43:58;94753.81;;;14.48;71.07
22047;BME280;11187;49.412;20.956;2023-03-22T13:46:41;94749.69;;;14.44;70.25
22047;BME280;11187;49.412;20.956;2023-03-22T13:52:36;94753.34;;;14.38;70.23
22047;BME280;11187;49.412;20.956;2023-03-22T13:55:47;94741.44;;;14.36;69.07
22047;BME280;11187;49.412;20.956;2023-03-22T13:58:34;94744.13;;;14.33;69.95
22047;BME280;11187;49.412;20.956;2023-03-22T14:01:28;94744.38;;;14.27;69.46
22047;BME280;11187;49.412;20.956;2023-03-22T14:04:10;94735.88;;;14.25;69.75
22047;BME280;11187;49.412;20.956;2023-03-22T14:07:24;94738.63;;;14.20;69.92
22047;BME280;11187;49.412;20.956;2023-03-22T14:10:02;94742.34;;;14.13;69.49
22047;BME280;11187;49.412;20.956;2023-03-22T14:12:56;94733.88;;;14.09;69.35
22047;BME280;11187;49.412;20.956;2023-03-22T14:15:34;94730.53;;;14.07;70.25
22047;BME280;11187;49.412;20.956;2023-03-22T14:18:29;94729.88;;;14.02;69.47
22047;BME280;11187;49.412;20.956;2023-03-22T14:21:10;94728.97;;;14.03;69.85
22047;BME280;11187;49.412;20.956;2023-03-22T14:23:59;94726.38;;;14.03;70.54
22047;BME280;11187;49.412;20.956;2023-03-22T14:26:39;94728.13;;;14.03;70.19
22047;BME280;11187;49.412;20.956;2023-03-22T14:29:47;94728.97;;;14.03;70.17
22047;BME280;11187;49.412;20.956;2023-03-22T14:32:21;94726.22;;;14.08;70.78
22047;BME280;11187;49.412;20.956;2023-03-22T14:35:30;94724.53;;;14.07;70.82
22047;BME280;11187;49.412;20.956;2023-03-22T14:38:33;94721.91;;;14.08;69.73
22047;BME280;11187;49.412;20.956;2023-03-22T14:41:15;94717.72;;;14.06;70.35
22047;BME280;11187;49.412;20.956;2023-03-22T14:44:10;94712.84;;;13.98;69.93
22047;BME280;11187;49.412;20.956;2023-03-22T14:47:20;94711.41;;;13.91;69.56
22047;BME280;11187;49.412;20.956;2023-03-22T14:49:55;94704.59;;;13.90;70.72
22047;BME280;11187;49.412;20.956;2023-03-22T14:52:49;94703.88;;;13.86;71.22
22047;BME280;11187;49.412;20.956;2023-03-22T14:55:43;94701.44;;;13.83;70.79
22047;BME280;11187;49.412;20.956;2023-03-22T14:58:18;94705.84;;;13.79;70.63
22047;BME280;11187;49.412;20.956;2023-03-22T15:01:35;94705.09;;;13.76;70.32
22047;BME280;11187;49.412;20.956;2023-03-22T15:04:10;94699.19;;;13.74;70.72
22047;BME280;11187;49.412;20.956;2023-03-22T15:07:04;94697.50;;;13.73;70.06
22047;BME280;11187;49.412;20.956;2023-03-22T15:10:23;94699.28;;;13.71;70.38
22047;BME280;11187;49.412;20.956;2023-03-22T15:12:58;94703.56;;;13.72;70.96
22047;BME280;11187;49.412;20.956;2023-03-22T15:15:53;94698.47;;;13.70;70.35
22047;BME280;11187;49.412;20.956;2023-03-22T15:18:49;94705.44;;;13.67;70.36
22047;BME280;11187;49.412;20.956;2023-03-22T15:21:42;94704.75;;;13.63;70.12
22047;BME280;11187;49.412;20.956;2023-03-22T15:24:37;94703.91;;;13.63;70.61
22047;BME280;11187;49.412;20.956;2023-03-22T15:27:10;94703.03;;;13.62;70.51
22047;BME280;11187;49.412;20.956;2023-03-22T15:29:58;94702.25;;;13.60;69.83
22047;BME280;11187;49.412;20.956;2023-03-22T15:32:31;94692.03;;;13.58;69.89
22047;BME280;11187;49.412;20.956;2023-03-22T15:35:25;94698.06;;;13.57;69.96
22047;BME280;11187;49.412;20.956;2023-03-22T15:38:33;94696.44;;;13.55;70.37